This is the latest recevied weather packets stored in our database for station/object SQ2HCW-13. If no packets are shown the sender has not sent any weather packets the latest 10 day(s).
| Time | Temp. | Humidity | Pressure | Rain* | Wind** | Luminosity | Snow |
|---|---|---|---|---|---|---|---|
| 1778123745 | 7.22° C | 99% | 994.7 hPa | 0 mm | - | - | - |
| 1778109369 | 7.78° C | 99% | 993.5 hPa | 0 mm | - | - | - |
| 1778108154 | 8.33° C | 99% | 993.7 hPa | 0 mm | - | - | - |
| 1778102145 | 8.89° C | 98% | 992.6 hPa | 0 mm | - | - | - |
| 1778101542 | 9.44° C | 97% | 992.7 hPa | 0 mm | - | - | - |
| 1778098559 | 10.56° C | 97% | 992.4 hPa | 0 mm | - | - | - |
| 1778094319 | 12.22° C | 97% | 992 hPa | 0 mm | - | - | - |
| 1778091344 | 12.78° C | 91% | 991.3 hPa | 0 mm | - | - | - |
| 1778088920 | 15.56° C | 79% | 991.1 hPa | 0 mm | - | - | - |
| 1778088370 | 15.56° C | 79% | 991.1 hPa | 0 mm | - | - | - |
| 1778082955 | 20.56° C | 67% | 990.3 hPa | 0 mm | - | - | - |
| 1778076374 | 17.78° C | 72% | 990.3 hPa | 0 mm | - | - | - |
| 1778071526 | 16.67° C | 74% | 990.2 hPa | 0 mm | - | - | - |
| 1778069162 | 19.44° C | 66% | 990 hPa | 0 mm | - | - | - |
| 1778068554 | 18.33° C | 69% | 989.9 hPa | 0 mm | - | - | - |
| 1778067951 | 17.22° C | 73% | 990.1 hPa | 0 mm | - | - | - |
| 1778067362 | 16.67° C | 75% | 990.3 hPa | 0 mm | - | - | - |
| 1778061951 | 16.67° C | 74% | 990.1 hPa | 0 mm | - | - | - |
| 1778061342 | 16.11° C | 77% | 990 hPa | 0 mm | - | - | - |
| 1778060739 | 15.56° C | 77% | 990.1 hPa | 0 mm | - | - | - |
| 1778043342 | 10.56° C | 99% | 990.2 hPa | 0 mm | - | - | - |
| 1778042759 | 10.56° C | 99% | 990.3 hPa | 0 mm | - | - | - |
| 1778040917 | 10° C | 99% | 990.3 hPa | 0 mm | - | - | - |
| 1778035526 | 10° C | 99% | 991.5 hPa | 0 mm | - | - | - |
| 1778034918 | 10° C | 99% | 991.7 hPa | 0 mm | - | - | - |
* Rain latest hour (hover to see other rain measurements)
** Current wind speed in m/s (hover to see current wind gust speed)